createdAt,value
2018-12-12T00:00:56.069Z,1021.27
2018-12-12T00:01:56.036Z,1021.33
2018-12-12T00:02:56.005Z,1021.30
2018-12-12T00:03:55.971Z,1021.27
2018-12-12T00:04:55.938Z,1021.29
2018-12-12T00:05:55.906Z,1021.29
2018-12-12T00:06:55.873Z,1021.28
2018-12-12T00:07:55.842Z,1021.28
2018-12-12T00:08:55.808Z,1021.31
2018-12-12T00:09:55.775Z,1021.29
2018-12-12T00:10:55.743Z,1021.35
2018-12-12T00:11:55.710Z,1021.34
2018-12-12T00:12:55.677Z,1021.37
2018-12-12T00:13:55.645Z,1021.39
2018-12-12T00:14:55.613Z,1021.36
2018-12-12T00:15:55.586Z,1021.41
2018-12-12T00:16:55.549Z,1021.39
2018-12-12T00:17:55.516Z,1021.39
2018-12-12T00:18:55.484Z,1021.40
2018-12-12T00:19:55.451Z,1021.44
2018-12-12T00:20:55.418Z,1021.42
2018-12-12T00:21:55.388Z,1021.43
2018-12-12T00:22:55.431Z,1021.45
2018-12-12T00:23:55.323Z,1021.46
2018-12-12T00:24:55.289Z,1021.50
2018-12-12T00:25:55.257Z,1021.49
2018-12-12T00:26:55.225Z,1021.48
2018-12-12T00:27:55.194Z,1021.52
2018-12-12T00:28:55.161Z,1021.53
2018-12-12T00:29:55.129Z,1021.50
2018-12-12T00:30:55.095Z,1021.52
2018-12-12T00:31:55.062Z,1021.46
2018-12-12T00:32:55.029Z,1021.53
2018-12-12T00:33:54.998Z,1021.53
2018-12-12T00:34:54.964Z,1021.52
2018-12-12T00:35:54.934Z,1021.49
2018-12-12T00:36:54.902Z,1021.50
2018-12-12T00:37:54.867Z,1021.56
2018-12-12T00:38:54.843Z,1021.56
2018-12-12T00:39:54.802Z,1021.59
2018-12-12T00:40:54.770Z,1021.56
2018-12-12T00:41:54.739Z,1021.59
2018-12-12T00:42:54.707Z,1021.62
2018-12-12T00:43:54.674Z,1021.61
2018-12-12T00:44:54.641Z,1021.61
2018-12-12T00:45:54.608Z,1021.59
2018-12-12T00:46:54.576Z,1021.56
2018-12-12T00:47:54.543Z,1021.57
2018-12-12T00:48:54.516Z,1021.53
2018-12-12T00:49:54.482Z,1021.53
2018-12-12T00:50:54.445Z,1021.59
2018-12-12T00:51:54.416Z,1021.53
2018-12-12T00:52:54.382Z,1021.62
2018-12-12T00:53:54.349Z,1021.60
2018-12-12T00:54:54.317Z,1021.65
2018-12-12T00:55:54.284Z,1021.64
2018-12-12T00:56:54.252Z,1021.63
2018-12-12T00:57:54.219Z,1021.65
2018-12-12T00:58:54.187Z,1021.68
2018-12-12T00:59:54.155Z,1021.70
2018-12-12T01:00:54.126Z,1021.65
2018-12-12T01:01:54.090Z,1021.73
2018-12-12T01:02:54.058Z,1021.77
2018-12-12T01:03:54.024Z,1021.74
2018-12-12T01:04:53.993Z,1021.69
2018-12-12T01:05:53.972Z,1021.72
2018-12-12T01:06:53.927Z,1021.74
2018-12-12T01:07:53.896Z,1021.70
2018-12-12T01:08:53.863Z,1021.69
2018-12-12T01:09:53.831Z,1021.73
2018-12-12T01:10:53.799Z,1021.68
2018-12-12T01:11:53.766Z,1021.72
2018-12-12T01:12:53.738Z,1021.74
2018-12-12T01:13:53.714Z,1021.79
2018-12-12T01:14:53.679Z,1021.76
2018-12-12T01:15:53.653Z,1021.79
2018-12-12T01:16:53.605Z,1021.83
2018-12-12T01:17:53.573Z,1021.80
2018-12-12T01:18:53.540Z,1021.76
2018-12-12T01:19:53.510Z,1021.79
2018-12-12T01:20:53.475Z,1021.85
2018-12-12T01:21:53.455Z,1021.87
2018-12-12T01:22:53.419Z,1021.87
2018-12-12T01:23:53.379Z,1021.84
2018-12-12T01:24:53.346Z,1021.84
2018-12-12T01:25:53.313Z,1021.82
2018-12-12T01:26:53.280Z,1021.85
2018-12-12T01:27:53.254Z,1021.86
2018-12-12T01:28:53.217Z,1021.90
2018-12-12T01:29:53.189Z,1021.92
2018-12-12T01:30:53.153Z,1021.86
2018-12-12T01:31:53.119Z,1021.85
2018-12-12T01:32:53.086Z,1021.92
2018-12-12T01:33:53.055Z,1021.93
2018-12-12T01:34:53.022Z,1021.93
2018-12-12T01:35:52.990Z,1021.91
2018-12-12T01:36:52.958Z,1021.89
2018-12-12T01:37:52.924Z,1021.96
2018-12-12T01:38:52.892Z,1021.91
2018-12-12T01:39:52.859Z,1021.95
2018-12-12T01:40:52.825Z,1021.97
2018-12-12T01:41:52.795Z,1021.89
2018-12-12T01:42:52.763Z,1021.96
2018-12-12T01:43:52.732Z,1021.95
2018-12-12T01:44:52.695Z,1021.92
2018-12-12T01:45:52.662Z,1021.95
2018-12-12T01:46:52.632Z,1021.96
2018-12-12T01:47:52.598Z,1021.92
2018-12-12T01:48:52.565Z,1021.90
2018-12-12T01:49:52.533Z,1021.94
2018-12-12T01:50:52.500Z,1021.86
2018-12-12T01:51:52.468Z,1021.93
2018-12-12T01:52:52.435Z,1021.94
2018-12-12T01:53:52.403Z,1021.94
2018-12-12T01:54:52.372Z,1021.93
2018-12-12T01:55:52.341Z,1021.96
2018-12-12T01:56:52.305Z,1021.95
2018-12-12T01:57:52.274Z,1021.92
2018-12-12T01:58:52.242Z,1021.92
2018-12-12T01:59:52.209Z,1021.95
2018-12-12T02:00:52.175Z,1021.88
2018-12-12T02:01:52.157Z,1021.92
2018-12-12T02:02:52.112Z,1021.93
2018-12-12T02:03:52.077Z,1021.92
2018-12-12T02:04:52.044Z,1021.89
2018-12-12T02:05:52.013Z,1021.92
2018-12-12T02:06:51.980Z,1021.89
2018-12-12T02:07:51.950Z,1021.86
2018-12-12T02:08:51.918Z,1021.87
2018-12-12T02:09:51.883Z,1021.87
2018-12-12T02:10:51.854Z,1021.92
2018-12-12T02:11:51.817Z,1021.98
2018-12-12T02:12:51.783Z,1021.94
2018-12-12T02:13:51.752Z,1021.99
2018-12-12T02:14:51.719Z,1021.99
2018-12-12T02:15:51.689Z,1021.98
2018-12-12T02:16:51.654Z,1021.99
2018-12-12T02:17:51.621Z,1022.02
2018-12-12T02:18:51.590Z,1022.01
2018-12-12T02:19:51.556Z,1022.01
2018-12-12T02:20:51.523Z,1022.01
2018-12-12T02:21:51.499Z,1022.00
2018-12-12T02:22:51.460Z,1022.03
2018-12-12T02:23:51.427Z,1022.02
2018-12-12T02:24:51.394Z,1022.02
2018-12-12T02:25:51.361Z,1022.00
2018-12-12T02:26:51.330Z,1021.99
2018-12-12T02:27:51.296Z,1022.00
2018-12-12T02:28:51.270Z,1022.02
2018-12-12T02:29:51.234Z,1022.07
2018-12-12T02:30:51.200Z,1022.04
2018-12-12T02:31:51.168Z,1022.06
2018-12-12T02:32:51.133Z,1022.09
2018-12-12T02:33:51.107Z,1022.08
2018-12-12T02:34:51.072Z,1022.09
2018-12-12T02:35:51.038Z,1022.09
2018-12-12T02:36:51.011Z,1022.08
2018-12-12T02:37:50.972Z,1022.12
2018-12-12T02:38:50.941Z,1022.12
2018-12-12T02:39:50.920Z,1022.15
2018-12-12T02:40:50.874Z,1022.14
2018-12-12T02:41:50.843Z,1022.12
2018-12-12T02:42:50.810Z,1022.13
2018-12-12T02:43:51.841Z,1022.12
2018-12-12T02:44:50.760Z,1022.10
2018-12-12T02:45:50.714Z,1022.10
2018-12-12T02:46:50.682Z,1022.11
2018-12-12T02:47:50.655Z,1022.06
2018-12-12T02:48:50.621Z,1022.04
2018-12-12T02:49:50.585Z,1021.96
2018-12-12T02:50:50.557Z,1021.98
2018-12-12T02:51:50.520Z,1022.02
2018-12-12T02:52:50.489Z,1022.02
2018-12-12T02:53:50.456Z,1022.05
2018-12-12T02:54:50.426Z,1022.05
2018-12-12T02:55:50.390Z,1022.06
2018-12-12T02:56:50.356Z,1022.13
2018-12-12T02:57:50.327Z,1022.18
2018-12-12T02:58:50.292Z,1022.18
2018-12-12T02:59:50.265Z,1022.23
2018-12-12T03:00:50.230Z,1022.22
2018-12-12T03:01:50.205Z,1022.23
2018-12-12T03:02:50.165Z,1022.23
2018-12-12T03:03:50.131Z,1022.25
2018-12-12T03:04:50.101Z,1022.25
2018-12-12T03:05:50.067Z,1022.24
2018-12-12T03:06:50.038Z,1022.26
2018-12-12T03:07:50.018Z,1022.30
2018-12-12T03:08:49.970Z,1022.24
2018-12-12T03:09:49.937Z,1022.26
2018-12-12T03:10:49.905Z,1022.27
2018-12-12T03:11:49.876Z,1022.27
2018-12-12T03:12:49.840Z,1022.24
2018-12-12T03:13:49.807Z,1022.26
2018-12-12T03:14:49.776Z,1022.27
2018-12-12T03:15:49.745Z,1022.27
2018-12-12T03:16:49.710Z,1022.24
2018-12-12T03:17:49.677Z,1022.27
2018-12-12T03:18:49.646Z,1022.29
2018-12-12T03:19:49.621Z,1022.25
2018-12-12T03:20:49.589Z,1022.26
2018-12-12T03:21:49.548Z,1022.24
2018-12-12T03:22:49.516Z,1022.26
2018-12-12T03:23:49.485Z,1022.25
2018-12-12T03:24:49.451Z,1022.26
2018-12-12T03:25:49.419Z,1022.30
2018-12-12T03:26:49.389Z,1022.25
2018-12-12T03:27:49.356Z,1022.25
2018-12-12T03:28:49.321Z,1022.30
2018-12-12T03:29:49.295Z,1022.30
2018-12-12T03:30:49.261Z,1022.26
2018-12-12T03:31:49.228Z,1022.30
2018-12-12T03:32:49.281Z,1022.31
2018-12-12T03:33:49.160Z,1022.28
2018-12-12T03:34:49.131Z,1022.28
2018-12-12T03:35:49.123Z,1022.29
2018-12-12T03:36:49.063Z,1022.30
2018-12-12T03:37:49.065Z,1022.30
2018-12-12T03:38:48.999Z,1022.30
2018-12-12T03:39:48.972Z,1022.33
2018-12-12T03:40:48.937Z,1022.30
2018-12-12T03:41:48.907Z,1022.32
2018-12-12T03:42:48.871Z,1022.31
2018-12-12T03:43:48.845Z,1022.31
2018-12-12T03:44:48.806Z,1022.34
2018-12-12T03:45:48.778Z,1022.29
2018-12-12T03:46:48.741Z,1022.30
2018-12-12T03:47:48.710Z,1022.33
2018-12-12T03:48:48.678Z,1022.32
2018-12-12T03:49:48.648Z,1022.31
2018-12-12T03:50:48.613Z,1022.31
2018-12-12T03:51:48.579Z,1022.33
2018-12-12T03:52:48.546Z,1022.31
2018-12-12T03:53:48.515Z,1022.35
2018-12-12T03:54:48.482Z,1022.37
2018-12-12T03:55:48.451Z,1022.40
2018-12-12T03:56:48.420Z,1022.31
2018-12-12T03:57:48.385Z,1022.34
2018-12-12T03:58:48.354Z,1022.34
2018-12-12T03:59:48.320Z,1022.30
2018-12-12T04:00:48.289Z,1022.33
2018-12-12T04:01:48.261Z,1022.37
2018-12-12T04:02:48.224Z,1022.35
2018-12-12T04:03:48.192Z,1022.34
2018-12-12T04:04:48.158Z,1022.37
2018-12-12T04:05:48.127Z,1022.38
2018-12-12T04:06:48.095Z,1022.36
2018-12-12T04:07:48.061Z,1022.39
2018-12-12T04:08:48.037Z,1022.35
2018-12-12T04:09:47.997Z,1022.36
2018-12-12T04:10:47.966Z,1022.39
2018-12-12T04:11:47.940Z,1022.40
2018-12-12T04:12:47.914Z,1022.40
2018-12-12T04:13:47.873Z,1022.42
2018-12-12T04:14:47.838Z,1022.40
2018-12-12T04:15:47.802Z,1022.38
2018-12-12T04:16:47.781Z,1022.38
2018-12-12T04:17:47.747Z,1022.40
2018-12-12T04:18:47.716Z,1022.35
2018-12-12T04:19:47.675Z,1022.39
2018-12-12T04:20:47.641Z,1022.35
2018-12-12T04:21:47.611Z,1022.24
2018-12-12T04:22:47.582Z,1022.35
2018-12-12T04:23:47.545Z,1022.38
2018-12-12T04:24:47.511Z,1022.36
2018-12-12T04:25:47.479Z,1022.38
2018-12-12T04:26:47.450Z,1022.37
2018-12-12T04:27:47.414Z,1022.39
2018-12-12T04:28:47.401Z,1022.44
2018-12-12T04:29:47.350Z,1022.39
2018-12-12T04:30:47.318Z,1022.46
2018-12-12T04:31:47.285Z,1022.44
2018-12-12T04:32:47.250Z,1022.50
2018-12-12T04:33:47.221Z,1022.51
2018-12-12T04:34:47.187Z,1022.48
2018-12-12T04:35:47.154Z,1022.51
2018-12-12T04:36:47.123Z,1022.49
2018-12-12T04:37:47.088Z,1022.52
2018-12-12T04:38:47.056Z,1022.56
2018-12-12T04:39:47.023Z,1022.52
2018-12-12T04:40:46.992Z,1022.55
2018-12-12T04:41:46.957Z,1022.61
2018-12-12T04:42:46.933Z,1022.65
2018-12-12T04:43:46.891Z,1022.57
2018-12-12T04:44:46.861Z,1022.64
2018-12-12T04:45:46.827Z,1022.62
2018-12-12T04:46:46.793Z,1022.54
2018-12-12T04:47:46.761Z,1022.57
2018-12-12T04:48:46.729Z,1022.59
2018-12-12T04:49:46.698Z,1022.61
2018-12-12T04:50:46.664Z,1022.64
2018-12-12T04:51:46.629Z,1022.66
2018-12-12T04:52:46.595Z,1022.66
2018-12-12T04:53:46.565Z,1022.63
2018-12-12T04:54:46.532Z,1022.62
2018-12-12T04:55:46.500Z,1022.59
2018-12-12T04:56:46.468Z,1022.57
2018-12-12T04:57:46.432Z,1022.65
2018-12-12T04:58:46.407Z,1022.64
2018-12-12T04:59:46.370Z,1022.67
2018-12-12T05:00:46.336Z,1022.66
2018-12-12T05:01:46.303Z,1022.65
2018-12-12T05:02:46.271Z,1022.67
2018-12-12T05:03:46.241Z,1022.69
2018-12-12T05:04:46.206Z,1022.72
2018-12-12T05:05:46.175Z,1022.71
2018-12-12T05:06:46.139Z,1022.71
2018-12-12T05:07:46.107Z,1022.73
2018-12-12T05:08:46.074Z,1022.69
2018-12-12T05:09:46.043Z,1022.69
2018-12-12T05:10:46.012Z,1022.75
2018-12-12T05:11:45.983Z,1022.79
2018-12-12T05:12:45.945Z,1022.77
2018-12-12T05:13:45.912Z,1022.79
2018-12-12T05:14:45.884Z,1022.80
2018-12-12T05:15:45.849Z,1022.81
2018-12-12T05:16:45.814Z,1022.80
2018-12-12T05:17:45.784Z,1022.78
2018-12-12T05:18:45.820Z,1022.79
2018-12-12T05:19:45.722Z,1022.81
2018-12-12T05:20:45.686Z,1022.80
2018-12-12T05:21:45.653Z,1022.77
2018-12-12T05:22:45.626Z,1022.78
2018-12-12T05:23:45.590Z,1022.83
2018-12-12T05:24:45.556Z,1022.82
2018-12-12T05:25:45.525Z,1022.87
2018-12-12T05:26:45.495Z,1022.85
2018-12-12T05:27:45.464Z,1022.91
2018-12-12T05:28:45.433Z,1022.90
2018-12-12T05:29:45.394Z,1022.90
2018-12-12T05:30:45.366Z,1022.98
2018-12-12T05:31:45.332Z,1022.95
2018-12-12T05:32:45.298Z,1022.95
2018-12-12T05:33:45.266Z,1022.97
2018-12-12T05:34:45.235Z,1022.98
2018-12-12T05:35:45.240Z,1023.00
2018-12-12T05:36:45.182Z,1023.00
2018-12-12T05:37:50.659Z,1022.93
2018-12-12T05:38:45.106Z,1022.99
2018-12-12T05:39:45.073Z,1022.98
2018-12-12T05:40:45.040Z,1022.98
2018-12-12T05:41:45.013Z,1022.99
2018-12-12T05:42:44.979Z,1022.99
2018-12-12T05:43:44.947Z,1023.01
2018-12-12T05:44:44.911Z,1023.01
2018-12-12T05:45:44.883Z,1023.00
2018-12-12T05:46:44.848Z,1023.03
2018-12-12T05:47:44.817Z,1022.98
2018-12-12T05:48:44.787Z,1022.99
2018-12-12T05:49:44.751Z,1022.99
2018-12-12T05:50:44.720Z,1023.00
2018-12-12T05:51:44.688Z,1023.03
2018-12-12T05:52:44.655Z,1023.03
2018-12-12T05:53:44.623Z,1023.01
2018-12-12T05:54:44.591Z,1023.07
2018-12-12T05:55:44.559Z,1023.08
2018-12-12T05:56:44.527Z,1023.06
2018-12-12T05:57:44.500Z,1023.07
2018-12-12T05:58:44.462Z,1023.02
2018-12-12T05:59:44.439Z,1023.03
2018-12-12T06:00:44.397Z,1022.99
2018-12-12T06:01:44.367Z,1023.04
2018-12-12T06:02:44.335Z,1023.03
2018-12-12T06:03:44.303Z,1023.03
2018-12-12T06:04:44.270Z,1023.02
2018-12-12T06:05:44.237Z,1022.98
2018-12-12T06:06:44.207Z,1023.05
2018-12-12T06:07:44.176Z,1023.10
2018-12-12T06:08:44.141Z,1023.09
2018-12-12T06:09:44.111Z,1023.12
2018-12-12T06:10:44.079Z,1023.10
2018-12-12T06:11:44.053Z,1023.13
2018-12-12T06:12:44.013Z,1023.12
2018-12-12T06:13:44.008Z,1023.15
2018-12-12T06:14:43.950Z,1023.18
2018-12-12T06:15:43.917Z,1023.18
2018-12-12T06:16:43.884Z,1023.20
2018-12-12T06:17:43.860Z,1023.21
2018-12-12T06:18:43.820Z,1023.18
2018-12-12T06:19:43.794Z,1023.20
2018-12-12T06:20:43.757Z,1023.20
2018-12-12T06:21:43.733Z,1023.25
2018-12-12T06:22:43.693Z,1023.25
2018-12-12T06:23:43.662Z,1023.33
2018-12-12T06:24:43.627Z,1023.34
2018-12-12T06:25:43.596Z,1023.27
2018-12-12T06:26:43.565Z,1023.32
2018-12-12T06:27:43.533Z,1023.34
2018-12-12T06:28:43.501Z,1023.28
2018-12-12T06:29:43.469Z,1023.33
2018-12-12T06:30:43.435Z,1023.36
2018-12-12T06:31:43.405Z,1023.35
2018-12-12T06:32:43.371Z,1023.37
2018-12-12T06:33:43.339Z,1023.34
2018-12-12T06:34:43.314Z,1023.43
2018-12-12T06:35:43.275Z,1023.40
2018-12-12T06:36:43.243Z,1023.45
2018-12-12T06:37:43.210Z,1023.39
2018-12-12T06:38:43.179Z,1023.43
2018-12-12T06:39:43.148Z,1023.47
2018-12-12T06:40:43.115Z,1023.47
2018-12-12T06:41:43.083Z,1023.46
2018-12-12T06:42:43.048Z,1023.41
2018-12-12T06:43:43.018Z,1023.40
2018-12-12T06:44:42.984Z,1023.42
2018-12-12T06:45:42.956Z,1023.45
2018-12-12T06:46:42.919Z,1023.41
2018-12-12T06:47:42.889Z,1023.46
2018-12-12T06:48:42.854Z,1023.46
2018-12-12T06:49:42.823Z,1023.42
2018-12-12T06:50:42.791Z,1023.34
2018-12-12T06:51:42.758Z,1023.41
2018-12-12T06:52:42.730Z,1023.51
2018-12-12T06:53:42.695Z,1023.52
2018-12-12T06:54:42.662Z,1023.52
2018-12-12T06:55:42.629Z,1023.53
2018-12-12T06:56:42.597Z,1023.46
2018-12-12T06:57:42.568Z,1023.46
2018-12-12T06:58:42.532Z,1023.48
2018-12-12T06:59:42.499Z,1023.51
2018-12-12T07:00:42.467Z,1023.50
2018-12-12T07:01:42.438Z,1023.46
2018-12-12T07:02:42.403Z,1023.52
2018-12-12T07:03:42.383Z,1023.52
2018-12-12T07:04:42.368Z,1023.52
2018-12-12T07:05:42.304Z,1023.54
2018-12-12T07:06:42.273Z,1023.54
2018-12-12T07:07:42.240Z,1023.55
2018-12-12T07:08:42.208Z,1023.57
2018-12-12T07:09:42.175Z,1023.57
2018-12-12T07:10:42.147Z,1023.61
2018-12-12T07:11:42.111Z,1023.59
2018-12-12T07:12:42.080Z,1023.67
2018-12-12T07:13:42.048Z,1023.66
2018-12-12T07:14:42.082Z,1023.66
2018-12-12T07:15:41.981Z,1023.68
2018-12-12T07:16:41.948Z,1023.69
2018-12-12T07:17:41.915Z,1023.67
2018-12-12T07:18:41.885Z,1023.66
2018-12-12T07:19:41.852Z,1023.70
2018-12-12T07:20:41.825Z,1023.71
2018-12-12T07:21:41.789Z,1023.66
2018-12-12T07:22:41.754Z,1023.61
2018-12-12T07:23:41.723Z,1023.61
2018-12-12T07:24:41.687Z,1023.65
2018-12-12T07:25:41.656Z,1023.61
2018-12-12T07:26:41.624Z,1023.61
2018-12-12T07:27:41.591Z,1023.64
2018-12-12T07:28:41.560Z,1023.64
2018-12-12T07:29:41.530Z,1023.66
2018-12-12T07:30:41.495Z,1023.72
2018-12-12T07:31:41.612Z,1023.75
2018-12-12T07:32:41.429Z,1023.73
2018-12-12T07:33:41.397Z,1023.69
2018-12-12T07:34:41.374Z,1023.72
2018-12-12T07:35:41.334Z,1023.79
2018-12-12T07:36:41.304Z,1023.75
2018-12-12T07:37:41.271Z,1023.77
2018-12-12T07:38:41.235Z,1023.79
2018-12-12T07:39:41.202Z,1023.84
2018-12-12T07:40:41.169Z,1023.83
2018-12-12T07:41:41.141Z,1023.86
2018-12-12T07:42:41.107Z,1023.88
2018-12-12T07:43:41.075Z,1023.89
2018-12-12T07:44:41.041Z,1023.93
2018-12-12T07:45:41.013Z,1023.91
2018-12-12T07:46:42.342Z,1023.96
2018-12-12T07:47:40.945Z,1023.93
2018-12-12T07:48:40.927Z,1023.92
2018-12-12T07:49:40.880Z,1023.91
2018-12-12T07:50:40.846Z,1023.97
2018-12-12T07:51:40.816Z,1023.96
2018-12-12T07:52:40.782Z,1023.98
2018-12-12T07:53:40.757Z,1024.01
2018-12-12T07:54:40.719Z,1024.01
2018-12-12T07:55:40.686Z,1024.07
2018-12-12T07:56:40.655Z,1024.06
2018-12-12T07:57:40.624Z,1024.08
2018-12-12T07:58:40.588Z,1024.08
2018-12-12T07:59:40.558Z,1024.10
2018-12-12T08:00:40.525Z,1024.10
2018-12-12T08:01:40.491Z,1024.11
2018-12-12T08:02:40.463Z,1024.08
2018-12-12T08:03:40.428Z,1024.13
2018-12-12T08:04:40.401Z,1024.12
2018-12-12T08:05:40.366Z,1024.12
2018-12-12T08:06:40.334Z,1024.15
2018-12-12T08:07:40.303Z,1024.10
2018-12-12T08:08:40.283Z,1024.13
2018-12-12T08:09:40.235Z,1024.12
2018-12-12T08:10:40.205Z,1024.14
2018-12-12T08:11:40.171Z,1024.16
2018-12-12T08:12:40.139Z,1024.18
2018-12-12T08:13:40.113Z,1024.20
2018-12-12T08:14:40.078Z,1024.15
2018-12-12T08:15:40.049Z,1024.19
2018-12-12T08:16:40.015Z,1024.22
2018-12-12T08:17:39.979Z,1024.20
2018-12-12T08:18:39.949Z,1024.20
2018-12-12T08:19:39.916Z,1024.26
2018-12-12T08:20:39.890Z,1024.27
2018-12-12T08:21:39.853Z,1024.30
2018-12-12T08:22:39.822Z,1024.27
2018-12-12T08:23:39.790Z,1024.26
2018-12-12T08:24:39.760Z,1024.33
2018-12-12T08:25:39.726Z,1024.25
2018-12-12T08:26:39.694Z,1024.27
2018-12-12T08:27:39.663Z,1024.24
2018-12-12T08:28:39.628Z,1024.27
2018-12-12T08:29:39.598Z,1024.28
2018-12-12T08:30:39.565Z,1024.27
2018-12-12T08:31:39.535Z,1024.28
2018-12-12T08:32:39.502Z,1024.28
2018-12-12T08:33:39.473Z,1024.33
2018-12-12T08:34:39.439Z,1024.36
2018-12-12T08:35:39.406Z,1024.38
2018-12-12T08:36:39.374Z,1024.35
2018-12-12T08:37:39.344Z,1024.37
2018-12-12T08:38:39.315Z,1024.39
2018-12-12T08:39:39.281Z,1024.40
2018-12-12T08:40:39.248Z,1024.44
2018-12-12T08:41:39.216Z,1024.41
2018-12-12T08:42:39.186Z,1024.40
2018-12-12T08:43:39.169Z,1024.41
2018-12-12T08:44:39.121Z,1024.40
2018-12-12T08:45:39.097Z,1024.39
2018-12-12T08:46:39.063Z,1024.41
2018-12-12T08:47:39.035Z,1024.43
2018-12-12T08:48:38.996Z,1024.41
2018-12-12T08:49:38.969Z,1024.46
2018-12-12T08:50:38.933Z,1024.48
2018-12-12T08:51:38.900Z,1024.48
2018-12-12T08:52:38.869Z,1024.46
2018-12-12T08:53:38.836Z,1024.50
2018-12-12T08:54:38.806Z,1024.47
2018-12-12T08:55:38.776Z,1024.49
2018-12-12T08:56:38.748Z,1024.48
2018-12-12T08:57:38.712Z,1024.53
2018-12-12T08:58:38.679Z,1024.53
2018-12-12T08:59:38.651Z,1024.44
2018-12-12T09:00:38.618Z,1024.45
2018-12-12T09:01:38.589Z,1024.47
2018-12-12T09:02:38.553Z,1024.45
2018-12-12T09:03:38.530Z,1024.47
2018-12-12T09:04:38.490Z,1024.50
2018-12-12T09:05:38.461Z,1024.52
2018-12-12T09:06:38.428Z,1024.48
2018-12-12T09:07:38.397Z,1024.47
2018-12-12T09:08:38.369Z,1024.45
2018-12-12T09:09:38.335Z,1024.51
2018-12-12T09:10:38.308Z,1024.47
2018-12-12T09:11:38.272Z,1024.43
2018-12-12T09:12:38.254Z,1024.49
2018-12-12T09:13:38.213Z,1024.48
2018-12-12T09:14:38.176Z,1024.46
2018-12-12T09:15:38.149Z,1024.51
2018-12-12T09:16:38.116Z,1024.51
2018-12-12T09:17:38.089Z,1024.52
2018-12-12T09:18:38.056Z,1024.56
2018-12-12T09:19:38.023Z,1024.55
2018-12-12T09:20:37.989Z,1024.59
2018-12-12T09:21:37.961Z,1024.61
2018-12-12T09:22:37.931Z,1024.58
2018-12-12T09:23:37.899Z,1024.64
2018-12-12T09:24:37.867Z,1024.66
2018-12-12T09:25:37.859Z,1024.68
2018-12-12T09:26:37.803Z,1024.68
2018-12-12T09:27:37.770Z,1024.69
2018-12-12T09:28:37.739Z,1024.72
2018-12-12T09:29:37.709Z,1024.71
2018-12-12T09:30:37.678Z,1024.67
2018-12-12T09:31:37.646Z,1024.70
2018-12-12T09:32:37.615Z,1024.70
2018-12-12T09:33:37.583Z,1024.72
2018-12-12T09:34:37.553Z,1024.72
2018-12-12T09:35:37.522Z,1024.66
2018-12-12T09:36:37.490Z,1024.75
2018-12-12T09:37:37.464Z,1024.71
2018-12-12T09:38:37.434Z,1024.71
2018-12-12T09:39:37.400Z,1024.73
2018-12-12T09:40:37.371Z,1024.76
2018-12-12T09:41:37.394Z,1024.75
2018-12-12T09:42:37.304Z,1024.81
2018-12-12T09:43:37.279Z,1024.80
2018-12-12T09:44:37.242Z,1024.80
2018-12-12T09:45:37.215Z,1024.80
2018-12-12T09:46:37.179Z,1024.79
2018-12-12T09:47:37.149Z,1024.81
2018-12-12T09:48:37.124Z,1024.79
2018-12-12T09:49:37.089Z,1024.71
2018-12-12T09:50:37.058Z,1024.76
2018-12-12T09:51:37.025Z,1024.72
2018-12-12T09:52:36.991Z,1024.72
2018-12-12T09:53:36.965Z,1024.81
2018-12-12T09:54:36.931Z,1024.82
2018-12-12T09:55:36.905Z,1024.92
2018-12-12T09:56:36.911Z,1024.83
2018-12-12T09:57:36.837Z,1024.86
2018-12-12T09:58:36.805Z,1024.86
2018-12-12T09:59:36.775Z,1024.89
2018-12-12T10:00:36.744Z,1024.84
2018-12-12T10:01:36.714Z,1024.87
2018-12-12T10:02:36.681Z,1024.87
2018-12-12T10:03:36.651Z,1024.89
2018-12-12T10:04:36.623Z,1024.88
2018-12-12T10:05:36.588Z,1024.94
2018-12-12T10:06:36.562Z,1024.92
2018-12-12T10:07:36.524Z,1024.89
2018-12-12T10:08:36.493Z,1024.90
2018-12-12T10:09:36.476Z,1024.92
2018-12-12T10:10:36.449Z,1024.91
2018-12-12T10:11:36.400Z,1024.91
2018-12-12T10:12:36.367Z,1024.91
2018-12-12T10:13:36.337Z,1024.96
2018-12-12T10:14:36.304Z,1024.93
2018-12-12T10:15:36.279Z,1024.95
2018-12-12T10:16:36.242Z,1024.94
2018-12-12T10:17:36.210Z,1024.94
2018-12-12T10:18:36.184Z,1024.96
2018-12-12T10:19:36.147Z,1024.98
2018-12-12T10:20:36.152Z,1025.01
2018-12-12T10:21:36.094Z,1024.97
2018-12-12T10:22:36.061Z,1024.98
2018-12-12T10:23:36.024Z,1025.01
2018-12-12T10:24:35.990Z,1024.97
2018-12-12T10:25:35.959Z,1024.98
2018-12-12T10:26:35.928Z,1024.96
2018-12-12T10:27:35.899Z,1024.93
2018-12-12T10:28:35.869Z,1024.94
2018-12-12T10:29:35.836Z,1024.95
2018-12-12T10:30:35.819Z,1024.95
2018-12-12T10:31:35.771Z,1024.96
2018-12-12T10:32:35.742Z,1024.91
2018-12-12T10:33:37.707Z,1024.92
2018-12-12T10:34:35.676Z,1024.96
2018-12-12T10:35:35.645Z,1024.90
2018-12-12T10:36:35.611Z,1024.96
2018-12-12T10:37:35.581Z,1024.96
2018-12-12T10:38:35.584Z,1024.94
2018-12-12T10:39:35.518Z,1024.96
2018-12-12T10:40:35.489Z,1024.92
2018-12-12T10:41:35.455Z,1024.98
2018-12-12T10:42:35.430Z,1024.97
2018-12-12T10:43:35.392Z,1024.93
2018-12-12T10:44:35.373Z,1024.96
2018-12-12T10:45:35.359Z,1024.96
2018-12-12T10:46:35.297Z,1024.92
2018-12-12T10:47:35.270Z,1024.87
2018-12-12T10:48:35.234Z,1024.89
2018-12-12T10:49:35.201Z,1024.92
2018-12-12T10:50:35.181Z,1024.94
2018-12-12T10:51:35.151Z,1024.91
2018-12-12T10:52:35.111Z,1024.95
2018-12-12T10:53:35.082Z,1024.92
2018-12-12T10:54:35.049Z,1024.93
2018-12-12T10:55:35.016Z,1024.93
2018-12-12T10:56:34.984Z,1024.95
2018-12-12T10:57:34.967Z,1024.94
2018-12-12T10:58:34.926Z,1024.95
2018-12-12T10:59:34.890Z,1024.92
2018-12-12T11:00:34.861Z,1024.97
2018-12-12T11:01:34.829Z,1024.97
2018-12-12T11:02:34.798Z,1024.91
2018-12-12T11:03:34.766Z,1024.89
2018-12-12T11:04:34.740Z,1024.86
2018-12-12T11:05:34.704Z,1024.88
2018-12-12T11:06:34.677Z,1024.86
2018-12-12T11:07:34.649Z,1024.91
2018-12-12T11:08:34.612Z,1024.93
2018-12-12T11:09:34.579Z,1024.90
2018-12-12T11:10:34.554Z,1024.88
2018-12-12T11:11:34.518Z,1024.89
2018-12-12T11:12:34.487Z,1024.90
2018-12-12T11:13:34.457Z,1024.95
2018-12-12T11:14:34.425Z,1024.92
2018-12-12T11:15:34.395Z,1024.92
2018-12-12T11:16:34.364Z,1024.89
2018-12-12T11:17:34.335Z,1024.88
2018-12-12T11:18:34.302Z,1024.89
2018-12-12T11:19:34.275Z,1024.85
2018-12-12T11:20:34.239Z,1024.88
2018-12-12T11:21:34.213Z,1024.84
2018-12-12T11:22:34.178Z,1024.86
2018-12-12T11:23:34.149Z,1024.82
2018-12-12T11:24:34.121Z,1024.85
2018-12-12T11:25:34.086Z,1024.88
2018-12-12T11:26:34.056Z,1024.87
2018-12-12T11:27:34.025Z,1024.91
2018-12-12T11:28:33.995Z,1024.92
2018-12-12T11:29:33.964Z,1024.92
2018-12-12T11:30:33.931Z,1024.93
2018-12-12T11:31:33.911Z,1024.99
2018-12-12T11:32:33.870Z,1024.96
2018-12-12T11:33:33.848Z,1024.99
2018-12-12T11:34:33.810Z,1025.00
2018-12-12T11:35:33.805Z,1024.97
2018-12-12T11:36:33.748Z,1024.99
2018-12-12T11:37:33.718Z,1024.99
2018-12-12T11:38:33.691Z,1024.96
2018-12-12T11:39:33.657Z,1025.00
2018-12-12T11:40:33.628Z,1024.96
2018-12-12T11:41:33.594Z,1024.98
2018-12-12T11:42:33.566Z,1024.96
2018-12-12T11:43:33.536Z,1024.94
2018-12-12T11:44:33.503Z,1024.94
2018-12-12T11:45:33.474Z,1024.85
2018-12-12T11:46:33.444Z,1024.88
2018-12-12T11:47:33.412Z,1024.86
2018-12-12T11:48:33.383Z,1024.88
2018-12-12T11:49:33.349Z,1024.83
2018-12-12T11:50:33.323Z,1024.84
2018-12-12T11:51:33.289Z,1024.84
2018-12-12T11:52:33.258Z,1024.84
2018-12-12T11:53:33.228Z,1024.81
2018-12-12T11:54:33.197Z,1024.83
2018-12-12T11:55:33.173Z,1024.78
2018-12-12T11:56:33.137Z,1024.81
2018-12-12T11:57:33.122Z,1024.80
2018-12-12T11:58:33.086Z,1024.79
2018-12-12T11:59:33.044Z,1024.82
2018-12-12T12:00:33.012Z,1024.82
2018-12-12T12:01:32.988Z,1024.83
2018-12-12T12:02:35.706Z,1024.84
2018-12-12T12:03:32.923Z,1024.84
2018-12-12T12:04:32.890Z,1024.83
2018-12-12T12:05:32.859Z,1024.81